Time;durP1;ratioP1;P1;durP2;ratioP2;P2;SDS_P1;SDS_P2;PMS_P1;PMS_P2;Temp;Humidity;BMP_temperature;BMP_pressure;BME280_temperature;BME280_humidity;BME280_pressure;Samples;Min_cycle;Max_cycle;Signal;HPM_P1;HPM_P2
2021/10/19 00:00:13;;;;;;;65.17;15.37;;;7.00;99.90;;;;;;4989408;28;20264;-59
2021/10/19 00:02:40;;;;;;;28.07;13.50;;;6.90;99.90;;;;;;4978797;28;20185;-60
2021/10/19 00:05:07;;;;;;;63.77;17.40;;;6.80;99.90;;;;;;4993229;28;20825;-60
2021/10/19 00:07:33;;;;;;;55.00;17.77;;;6.80;99.90;;;;;;4969916;28;20965;-59
2021/10/19 00:09:58;;;;;;;65.83;20.90;;;6.80;99.90;;;;;;4959614;28;20600;-59
2021/10/19 00:12:24;;;;;;;70.60;21.27;;;6.70;99.90;;;;;;4974375;28;20253;-60
2021/10/19 00:14:50;;;;;;;59.93;20.03;;;6.70;99.90;;;;;;4978275;28;20253;-60
2021/10/19 00:17:16;;;;;;;135.67;20.50;;;6.70;99.90;;;;;;4971095;28;20174;-60
2021/10/19 00:19:42;;;;;;;51.50;15.67;;;6.70;99.90;;;;;;4974525;28;20189;-60
2021/10/19 00:22:08;;;;;;;55.60;17.90;;;6.70;99.90;;;;;;4973373;28;20544;-59
2021/10/19 00:24:34;;;;;;;67.73;19.17;;;6.70;99.90;;;;;;4972446;28;20458;-60
2021/10/19 00:27:02;;;;;;;68.40;16.50;;;6.70;99.90;;;;;;4953388;28;20418;-60
2021/10/19 00:29:27;;;;;;;137.87;17.83;;;6.60;99.90;;;;;;4984973;28;20194;-60
2021/10/19 00:31:53;;;;;;;102.57;16.90;;;6.60;99.90;;;;;;4965960;28;20434;-59
2021/10/19 00:34:19;;;;;;;34.73;12.00;;;6.60;99.90;;;;;;4971656;28;20623;-59
2021/10/19 00:36:44;;;;;;;37.37;11.67;;;6.50;99.90;;;;;;4972967;28;20540;-59
2021/10/19 00:39:10;;;;;;;28.73;10.90;;;6.50;99.90;;;;;;4988184;28;20212;-59
2021/10/19 00:41:36;;;;;;;30.13;10.47;;;6.40;99.90;;;;;;4971986;28;20277;-60
2021/10/19 00:44:03;;;;;;;21.57;9.93;;;6.40;99.90;;;;;;4977148;28;20717;-60
2021/10/19 00:46:28;;;;;;;33.60;11.10;;;6.40;99.90;;;;;;4978996;28;20264;-60
2021/10/19 00:48:54;;;;;;;117.50;15.30;;;6.40;99.90;;;;;;4988808;28;21024;-60
2021/10/19 00:51:20;;;;;;;87.10;16.30;;;6.40;99.90;;;;;;4969963;28;20181;-60
2021/10/19 00:53:46;;;;;;;42.27;11.83;;;6.30;99.90;;;;;;4999094;28;20268;-61
2021/10/19 00:56:12;;;;;;;53.73;12.77;;;6.30;99.90;;;;;;4991532;28;20682;-61
2021/10/19 00:58:40;;;;;;;28.67;12.70;;;6.30;99.90;;;;;;4976830;28;20627;-60
2021/10/19 01:01:06;;;;;;;28.33;11.03;;;6.20;99.90;;;;;;4973098;28;20582;-60
2021/10/19 01:03:33;;;;;;;25.63;10.33;;;6.20;99.90;;;;;;4973449;28;20511;-60
2021/10/19 01:06:01;;;;;;;20.00;10.07;;;6.20;99.90;;;;;;4983928;28;20429;-60
2021/10/19 01:08:28;;;;;;;25.50;11.50;;;6.20;99.90;;;;;;4969182;28;20951;-60
2021/10/19 01:10:53;;;;;;;36.20;10.73;;;6.20;99.90;;;;;;4966303;28;20885;-60
2021/10/19 01:13:19;;;;;;;31.83;11.20;;;6.20;99.90;;;;;;4981226;28;20435;-60
2021/10/19 01:15:48;;;;;;;22.17;9.87;;;6.20;99.90;;;;;;4985726;28;20554;-60
2021/10/19 01:18:15;;;;;;;38.70;11.10;;;6.20;99.90;;;;;;4961166;28;20218;-60
2021/10/19 01:20:42;;;;;;;29.13;10.70;;;6.20;99.90;;;;;;4953292;28;20938;-60
2021/10/19 01:23:11;;;;;;;25.63;9.80;;;6.10;99.90;;;;;;4965525;28;20585;-60
2021/10/19 01:25:37;;;;;;;116.17;12.03;;;6.10;99.90;;;;;;4971186;28;20852;-59
2021/10/19 01:28:06;;;;;;;83.40;10.37;;;6.00;99.90;;;;;;4985903;28;21067;-59
2021/10/19 01:30:32;;;;;;;75.03;8.97;;;5.90;99.90;;;;;;4987915;28;20530;-59
2021/10/19 01:32:59;;;;;;;92.73;11.00;;;5.90;99.90;;;;;;4978662;28;20414;-58
2021/10/19 01:35:41;;;;;;;20.90;8.30;;;5.90;99.90;;;;;;4959553;28;20515;-59
2021/10/19 01:38:11;;;;;;;37.93;10.30;;;5.80;99.90;;;;;;4986635;28;20429;-59
2021/10/19 01:40:37;;;;;;;44.27;10.47;;;5.80;99.90;;;;;;4971604;28;20452;-59
2021/10/19 01:43:11;;;;;;;109.33;13.27;;;5.80;99.90;;;;;;4971335;28;20451;-59
2021/10/19 01:45:37;;;;;;;75.07;13.47;;;5.80;99.90;;;;;;4974494;28;20532;-59
2021/10/19 01:48:04;;;;;;;26.40;10.23;;;5.80;99.90;;;;;;4965849;28;20900;-59
2021/10/19 01:50:29;;;;;;;33.43;7.63;;;5.80;99.90;;;;;;4976771;28;20966;-59
2021/10/19 01:52:55;;;;;;;66.10;8.70;;;5.70;99.90;;;;;;4963139;28;20558;-59
2021/10/19 01:55:21;;;;;;;8.03;6.40;;;5.70;99.90;;;;;;4967030;28;20178;-59
2021/10/19 01:57:46;;;;;;;10.20;6.93;;;5.70;99.90;;;;;;4970960;28;20181;-59
2021/10/19 02:00:12;;;;;;;16.30;7.67;;;5.70;99.90;;;;;;4972449;28;20210;-59
2021/10/19 02:02:39;;;;;;;34.10;7.30;;;5.70;99.90;;;;;;4967628;28;20232;-59
2021/10/19 02:05:09;;;;;;;7.73;6.47;;;5.70;99.90;;;;;;4969849;28;20214;-59
2021/10/19 02:07:35;;;;;;;8.40;6.70;;;5.70;99.90;;;;;;4990694;28;20974;-59
2021/10/19 02:10:02;;;;;;;7.97;6.20;;;5.70;99.90;;;;;;4970922;28;20550;-59
2021/10/19 02:12:28;;;;;;;16.13;7.60;;;5.70;99.90;;;;;;4970825;28;20789;-59
2021/10/19 02:14:53;;;;;;;27.73;8.13;;;5.70;99.90;;;;;;4970557;28;21001;-59
2021/10/19 02:17:19;;;;;;;11.30;7.10;;;5.60;99.90;;;;;;4970872;28;20182;-59
2021/10/19 02:19:45;;;;;;;13.50;6.90;;;5.60;99.90;;;;;;4970265;28;20221;-60
2021/10/19 02:22:10;;;;;;;10.17;7.00;;;5.60;99.90;;;;;;4970121;28;20182;-59
2021/10/19 02:24:36;;;;;;;9.63;6.70;;;5.70;99.90;;;;;;4961316;28;20209;-57
2021/10/19 02:27:02;;;;;;;9.67;6.50;;;5.70;99.90;;;;;;4966908;28;20192;-59
2021/10/19 02:29:30;;;;;;;10.10;6.70;;;5.60;99.90;;;;;;4979265;28;20194;-59
2021/10/19 02:31:56;;;;;;;9.10;7.03;;;5.70;99.90;;;;;;4963246;28;20174;-59
2021/10/19 02:34:22;;;;;;;9.37;6.00;;;5.70;99.90;;;;;;4978773;28;20490;-60
2021/10/19 02:36:48;;;;;;;10.23;6.47;;;5.70;99.90;;;;;;4974303;28;20487;-59
2021/10/19 02:39:14;;;;;;;12.20;8.53;;;5.70;99.90;;;;;;4989060;28;20460;-60
2021/10/19 02:41:39;;;;;;;11.70;7.90;;;5.70;99.90;;;;;;4963737;28;20429;-60
2021/10/19 02:44:06;;;;;;;14.40;8.50;;;5.70;99.90;;;;;;4987405;28;20272;-59
2021/10/19 02:46:31;;;;;;;11.80;6.90;;;5.70;99.90;;;;;;4970555;28;20200;-59
2021/10/19 02:48:58;;;;;;;11.93;7.83;;;5.70;99.90;;;;;;4967493;28;20456;-59
2021/10/19 02:51:25;;;;;;;13.03;7.70;;;5.70;99.90;;;;;;4970472;28;20201;-59
2021/10/19 02:53:50;;;;;;;9.17;6.00;;;5.70;99.90;;;;;;4970985;28;20798;-59
2021/10/19 02:56:16;;;;;;;9.57;6.60;;;5.70;99.90;;;;;;4962512;28;20414;-59
2021/10/19 02:58:42;;;;;;;11.23;6.80;;;5.70;99.90;;;;;;4968811;28;20655;-59
2021/10/19 03:01:07;;;;;;;7.20;5.90;;;5.70;99.90;;;;;;4990473;28;20212;-59
2021/10/19 03:03:33;;;;;;;8.23;6.23;;;5.70;99.90;;;;;;4990936;28;20177;-59
2021/10/19 03:05:59;;;;;;;6.50;5.57;;;5.70;99.90;;;;;;4994024;28;20244;-60
2021/10/19 03:08:24;;;;;;;7.13;5.30;;;5.70;99.90;;;;;;4988247;28;20193;-59
2021/10/19 03:10:50;;;;;;;5.50;4.77;;;5.70;99.90;;;;;;4967289;28;20230;-59
2021/10/19 03:13:16;;;;;;;7.00;5.17;;;5.70;99.90;;;;;;4968766;28;20673;-59
2021/10/19 03:15:42;;;;;;;6.30;5.10;;;5.70;99.90;;;;;;4973000;28;20174;-59
2021/10/19 03:18:08;;;;;;;7.70;6.20;;;5.70;99.90;;;;;;4980938;28;20851;-59
2021/10/19 03:20:34;;;;;;;7.83;5.50;;;5.80;99.90;;;;;;4977741;28;20197;-60
2021/10/19 03:23:00;;;;;;;6.70;5.40;;;5.80;99.90;;;;;;4974751;28;20921;-59
2021/10/19 03:25:26;;;;;;;6.30;5.60;;;5.80;99.90;;;;;;4981725;28;20455;-60
2021/10/19 03:27:51;;;;;;;7.60;5.33;;;5.80;99.90;;;;;;4997498;28;20289;-60
2021/10/19 03:30:17;;;;;;;7.40;5.77;;;5.80;99.90;;;;;;4966812;28;20532;-59
2021/10/19 03:32:43;;;;;;;10.17;6.13;;;5.80;99.90;;;;;;4961609;28;20178;-59
2021/10/19 03:35:09;;;;;;;7.63;6.00;;;5.80;99.90;;;;;;4962710;28;20286;-59
2021/10/19 03:37:34;;;;;;;6.50;5.33;;;5.80;99.90;;;;;;4973648;28;20189;-59
2021/10/19 03:40:00;;;;;;;12.03;6.00;;;5.80;99.90;;;;;;4974037;28;20186;-60
2021/10/19 03:42:26;;;;;;;7.73;6.20;;;5.80;99.90;;;;;;4976029;28;20538;-60
2021/10/19 03:44:51;;;;;;;9.67;6.57;;;5.80;99.90;;;;;;4986194;28;20182;-59
2021/10/19 03:47:17;;;;;;;7.23;5.90;;;5.80;99.90;;;;;;4974443;28;20565;-59
2021/10/19 03:49:43;;;;;;;9.80;6.47;;;5.80;99.90;;;;;;4961460;28;20432;-60
2021/10/19 03:52:09;;;;;;;9.00;6.40;;;5.70;99.90;;;;;;4963812;28;20182;-60
2021/10/19 03:54:35;;;;;;;7.57;5.90;;;5.70;99.90;;;;;;4981042;28;20264;-61
2021/10/19 03:57:00;;;;;;;8.03;5.30;;;5.70;99.90;;;;;;4972189;28;20185;-58
2021/10/19 03:59:28;;;;;;;7.13;6.37;;;5.70;99.90;;;;;;4978146;28;20822;-58
2021/10/19 04:01:54;;;;;;;6.43;5.70;;;5.70;99.90;;;;;;4972545;28;20378;-57
2021/10/19 04:04:20;;;;;;;6.83;5.53;;;5.70;99.90;;;;;;4978687;28;20742;-57
2021/10/19 04:06:46;;;;;;;7.67;5.60;;;5.70;99.90;;;;;;4972021;28;20221;-58
2021/10/19 04:09:11;;;;;;;7.27;5.67;;;5.70;99.90;;;;;;4979886;28;20210;-59
2021/10/19 04:11:37;;;;;;;6.73;5.50;;;5.70;99.90;;;;;;4985348;28;20718;-59
2021/10/19 04:14:03;;;;;;;7.93;5.60;;;5.70;99.90;;;;;;4977605;28;20172;-61
2021/10/19 04:16:28;;;;;;;7.50;6.00;;;5.70;99.90;;;;;;4976562;28;20185;-60
2021/10/19 04:18:54;;;;;;;8.47;6.00;;;5.60;99.90;;;;;;4970222;28;20198;-60
2021/10/19 04:21:20;;;;;;;6.97;5.73;;;5.60;99.90;;;;;;4978368;28;20236;-60
2021/10/19 04:23:47;;;;;;;5.87;5.27;;;5.60;99.90;;;;;;4971362;28;20184;-60
2021/10/19 04:26:13;;;;;;;7.07;5.73;;;5.70;99.90;;;;;;4968714;28;20170;-60
2021/10/19 04:28:40;;;;;;;8.23;6.10;;;5.60;99.90;;;;;;4968192;28;20467;-61
2021/10/19 04:31:06;;;;;;;9.27;6.57;;;5.60;99.90;;;;;;4965988;28;20448;-60
2021/10/19 04:33:32;;;;;;;8.23;6.30;;;5.60;99.90;;;;;;4969382;28;20441;-60
2021/10/19 04:35:58;;;;;;;8.83;5.57;;;5.60;99.90;;;;;;4985586;28;20197;-63
2021/10/19 04:38:23;;;;;;;8.70;6.40;;;5.60;99.90;;;;;;4967143;28;20437;-61
2021/10/19 04:40:49;;;;;;;13.00;7.23;;;5.60;99.90;;;;;;4967785;28;20585;-60
2021/10/19 04:43:15;;;;;;;10.93;7.00;;;5.60;99.90;;;;;;4965540;28;20275;-60
2021/10/19 04:45:40;;;;;;;14.67;8.20;;;5.60;99.90;;;;;;4966506;28;20189;-61
2021/10/19 04:48:06;;;;;;;13.20;9.00;;;5.60;99.90;;;;;;4970789;28;20669;-60
2021/10/19 04:50:34;;;;;;;9.03;7.40;;;5.60;99.90;;;;;;4972316;28;20193;-58
2021/10/19 04:53:01;;;;;;;11.47;7.00;;;5.60;99.90;;;;;;4980049;28;20221;-58
2021/10/19 04:55:27;;;;;;;12.97;7.57;;;5.60;99.90;;;;;;4984568;28;21289;-57
2021/10/19 04:57:52;;;;;;;19.67;6.73;;;5.60;99.90;;;;;;4977498;28;20491;-59
2021/10/19 05:00:18;;;;;;;10.17;6.63;;;5.60;99.90;;;;;;4975754;28;20199;-59
2021/10/19 05:02:46;;;;;;;13.10;7.20;;;5.70;99.90;;;;;;4992074;28;20257;-59
2021/10/19 05:05:14;;;;;;;8.10;6.90;;;5.70;99.90;;;;;;4991740;28;20239;-59
2021/10/19 05:07:39;;;;;;;10.07;7.10;;;5.70;99.90;;;;;;4977588;28;20977;-59
2021/10/19 05:10:06;;;;;;;9.10;6.97;;;5.80;99.90;;;;;;4965232;28;20457;-59
2021/10/19 05:12:31;;;;;;;11.07;7.30;;;5.80;99.90;;;;;;4969191;28;20174;-59
2021/10/19 05:14:57;;;;;;;8.27;6.43;;;5.80;99.90;;;;;;4966380;28;20762;-59
2021/10/19 05:17:23;;;;;;;8.83;7.13;;;5.80;99.90;;;;;;4970171;28;20177;-59
2021/10/19 05:19:49;;;;;;;7.53;6.20;;;5.80;99.90;;;;;;4986731;28;20681;-59
2021/10/19 05:22:15;;;;;;;9.80;6.77;;;5.80;99.90;;;;;;4972922;28;20406;-59
2021/10/19 05:24:41;;;;;;;11.27;7.33;;;5.90;99.90;;;;;;4975047;28;20489;-60
2021/10/19 05:27:06;;;;;;;8.40;6.23;;;5.90;99.90;;;;;;4971044;28;20440;-61
2021/10/19 05:29:32;;;;;;;13.20;6.63;;;5.90;99.90;;;;;;4978899;28;20193;-59
2021/10/19 05:31:58;;;;;;;7.80;6.40;;;5.90;99.90;;;;;;4975393;28;20198;-59
2021/10/19 05:34:24;;;;;;;8.20;6.47;;;5.90;99.90;;;;;;4971101;28;20181;-59
2021/10/19 05:36:50;;;;;;;10.77;7.10;;;5.90;99.90;;;;;;4972352;28;20261;-60
2021/10/19 05:39:17;;;;;;;9.87;7.40;;;5.90;99.90;;;;;;4973074;28;20532;-59
2021/10/19 05:41:43;;;;;;;8.50;6.70;;;6.00;99.90;;;;;;4971254;28;20189;-60
2021/10/19 05:44:08;;;;;;;9.90;6.30;;;6.00;99.90;;;;;;4976701;28;20441;-60
2021/10/19 05:46:34;;;;;;;12.80;7.40;;;6.00;99.90;;;;;;4979558;28;20437;-59
2021/10/19 05:48:59;;;;;;;12.33;7.50;;;6.10;99.90;;;;;;4964719;28;20214;-60
2021/10/19 05:51:25;;;;;;;12.63;7.43;;;6.10;99.90;;;;;;4969800;28;20181;-59
2021/10/19 05:53:51;;;;;;;8.77;7.20;;;6.10;99.90;;;;;;4970815;28;20185;-59
2021/10/19 05:56:16;;;;;;;14.27;8.13;;;6.10;99.90;;;;;;4972180;28;20184;-59
2021/10/19 05:58:42;;;;;;;13.63;7.50;;;6.20;99.90;;;;;;4986155;28;20178;-58
2021/10/19 06:01:08;;;;;;;16.17;8.37;;;6.20;99.90;;;;;;4970510;28;20242;-60
2021/10/19 06:03:34;;;;;;;13.63;8.67;;;6.20;99.90;;;;;;4970971;28;20269;-60
2021/10/19 06:05:59;;;;;;;10.80;7.60;;;6.20;99.90;;;;;;4956859;28;20632;-59
2021/10/19 06:08:25;;;;;;;12.50;7.20;;;6.30;99.90;;;;;;4976429;28;20472;-60
2021/10/19 06:10:51;;;;;;;10.80;7.87;;;6.30;99.90;;;;;;4970889;28;20205;-59
2021/10/19 06:13:17;;;;;;;11.60;7.50;;;6.30;99.90;;;;;;4989405;28;20169;-60
2021/10/19 06:15:46;;;;;;;9.90;7.67;;;6.30;99.90;;;;;;4989687;28;20952;-60
2021/10/19 06:18:12;;;;;;;10.30;7.20;;;6.30;99.90;;;;;;4976638;28;20178;-59
2021/10/19 06:20:37;;;;;;;8.93;6.70;;;6.30;99.90;;;;;;4970368;28;20552;-59
2021/10/19 06:23:03;;;;;;;12.10;7.90;;;6.40;99.90;;;;;;4959415;28;20186;-60
2021/10/19 06:25:29;;;;;;;14.40;7.33;;;6.40;99.90;;;;;;4970702;28;20670;-60
2021/10/19 06:27:54;;;;;;;12.47;7.77;;;6.40;99.90;;;;;;4974592;28;20685;-59
2021/10/19 06:30:20;;;;;;;13.43;7.77;;;6.40;99.90;;;;;;4964984;28;20297;-60
2021/10/19 06:32:46;;;;;;;11.47;7.20;;;6.40;99.90;;;;;;4978209;28;20178;-59
2021/10/19 06:35:11;;;;;;;11.47;7.40;;;6.40;99.90;;;;;;4969985;28;20186;-59
2021/10/19 06:37:38;;;;;;;9.90;7.23;;;6.40;99.90;;;;;;4970849;28;21025;-59
2021/10/19 06:40:06;;;;;;;10.80;6.77;;;6.50;99.90;;;;;;4965577;28;20208;-60
2021/10/19 06:42:31;;;;;;;9.33;7.10;;;6.40;99.90;;;;;;4970740;28;20484;-59
2021/10/19 06:45:00;;;;;;;16.53;8.77;;;6.50;99.90;;;;;;4970084;28;20873;-59
2021/10/19 06:47:29;;;;;;;11.60;8.10;;;6.50;99.90;;;;;;4970639;28;20174;-62
2021/10/19 06:49:55;;;;;;;13.50;9.07;;;6.50;99.90;;;;;;4986585;28;20448;-60
2021/10/19 06:52:20;;;;;;;19.03;9.30;;;6.50;99.90;;;;;;4970002;28;20556;-59
2021/10/19 06:54:46;;;;;;;14.50;8.53;;;6.60;99.90;;;;;;4969546;28;20425;-59
2021/10/19 06:57:12;;;;;;;10.23;7.70;;;6.60;99.90;;;;;;4961803;28;20186;-59
2021/10/19 06:59:37;;;;;;;10.90;7.30;;;6.60;99.90;;;;;;4969256;28;20689;-59
2021/10/19 07:02:04;;;;;;;9.03;6.70;;;6.70;99.90;;;;;;4970829;28;20170;-60
2021/10/19 07:04:29;;;;;;;11.30;7.10;;;6.80;99.90;;;;;;4970936;28;20273;-60
2021/10/19 07:06:55;;;;;;;11.37;6.33;;;6.80;99.90;;;;;;4968949;28;20859;-59
2021/10/19 07:09:20;;;;;;;9.83;7.00;;;6.80;99.90;;;;;;4968509;28;20693;-60
2021/10/19 07:11:46;;;;;;;14.53;7.77;;;6.80;99.90;;;;;;4963313;28;20170;-58
2021/10/19 07:14:12;;;;;;;18.40;8.07;;;6.90;99.90;;;;;;4967660;28;20246;-59
2021/10/19 07:16:37;;;;;;;9.90;7.10;;;7.00;99.90;;;;;;4974581;28;20225;-59
2021/10/19 07:19:08;;;;;;;12.00;6.87;;;7.00;99.90;;;;;;4969951;28;20235;-59
2021/10/19 07:21:34;;;;;;;12.53;7.47;;;7.00;99.90;;;;;;4967664;28;20186;-59
2021/10/19 07:23:59;;;;;;;11.00;7.43;;;7.10;99.90;;;;;;4969109;28;20436;-59
2021/10/19 07:26:25;;;;;;;12.63;7.67;;;7.10;99.90;;;;;;4969753;28;20173;-59
2021/10/19 07:28:50;;;;;;;10.70;7.03;;;7.20;99.90;;;;;;4970758;28;20304;-59
2021/10/19 07:31:17;;;;;;;12.20;7.30;;;7.20;99.90;;;;;;4981959;28;20184;-60
2021/10/19 07:33:43;;;;;;;10.93;8.30;;;7.30;99.90;;;;;;4989996;28;20311;-59
2021/10/19 07:36:08;;;;;;;10.70;7.93;;;7.30;99.90;;;;;;4989833;28;20437;-58
2021/10/19 07:38:34;;;;;;;11.67;8.93;;;7.40;99.90;;;;;;4971425;28;20185;-59
2021/10/19 07:40:59;;;;;;;12.33;8.30;;;7.40;99.90;;;;;;4969393;28;20205;-60
2021/10/19 07:43:26;;;;;;;11.63;8.10;;;7.50;99.90;;;;;;4994222;28;20240;-59
2021/10/19 07:45:52;;;;;;;15.00;9.50;;;7.50;99.90;;;;;;4981860;28;20281;-59
2021/10/19 07:48:17;;;;;;;13.63;9.50;;;7.50;99.90;;;;;;4956651;28;20544;-59
2021/10/19 07:50:47;;;;;;;13.13;9.30;;;7.60;99.90;;;;;;4954661;28;20738;-59
2021/10/19 07:53:13;;;;;;;13.90;9.27;;;7.60;99.90;;;;;;4962392;28;20186;-60
2021/10/19 07:55:40;;;;;;;15.30;8.00;;;7.70;99.90;;;;;;4972075;28;20448;-59
2021/10/19 07:58:05;;;;;;;14.90;8.60;;;7.70;99.90;;;;;;4982491;28;20794;-61
2021/10/19 08:00:31;;;;;;;18.43;9.20;;;7.70;99.90;;;;;;4982794;28;20516;-60
2021/10/19 08:02:57;;;;;;;12.80;8.20;;;7.70;99.90;;;;;;4991344;28;20232;-63
2021/10/19 08:05:24;;;;;;;12.30;8.53;;;7.80;99.90;;;;;;4957655;28;20598;-59
2021/10/19 08:07:52;;;;;;;18.03;9.20;;;7.80;99.90;;;;;;4973434;28;20908;-58
2021/10/19 08:10:20;;;;;;;17.40;10.63;;;7.90;99.90;;;;;;4973074;28;20457;-59
2021/10/19 08:12:46;;;;;;;17.77;11.37;;;7.90;99.90;;;;;;4973253;28;20496;-59
2021/10/19 08:15:13;;;;;;;16.30;10.53;;;8.00;99.90;;;;;;4987870;28;20814;-59
2021/10/19 08:17:40;;;;;;;14.27;9.90;;;8.00;99.90;;;;;;4979601;28;20264;-59
2021/10/19 08:20:07;;;;;;;16.67;10.73;;;8.00;99.90;;;;;;4981225;28;20585;-60
2021/10/19 08:22:34;;;;;;;16.30;10.93;;;8.10;99.90;;;;;;4962172;28;20425;-60
2021/10/19 08:25:05;;;;;;;18.23;11.43;;;8.10;99.90;;;;;;4972492;28;20962;-60
2021/10/19 08:27:32;;;;;;;17.03;11.40;;;8.10;99.90;;;;;;4974378;28;20405;-60
2021/10/19 08:29:58;;;;;;;16.53;11.33;;;8.10;99.90;;;;;;4984548;28;20688;-60
2021/10/19 08:32:24;;;;;;;17.93;10.70;;;8.20;99.90;;;;;;4962322;28;20424;-58
2021/10/19 08:34:49;;;;;;;15.00;9.90;;;8.20;99.90;;;;;;4970739;28;20422;-60
2021/10/19 08:37:15;;;;;;;15.30;9.93;;;8.20;99.90;;;;;;4986328;28;20193;-59
2021/10/19 08:39:41;;;;;;;15.57;10.17;;;8.20;99.90;;;;;;4954066;28;20273;-60
2021/10/19 08:42:07;;;;;;;14.90;9.60;;;8.30;99.90;;;;;;4961906;28;20647;-59
2021/10/19 08:44:33;;;;;;;16.07;10.20;;;8.40;99.90;;;;;;4972994;28;20182;-60
2021/10/19 08:47:01;;;;;;;16.13;10.67;;;8.50;99.90;;;;;;4968471;28;20429;-59
2021/10/19 08:49:27;;;;;;;20.33;10.57;;;8.50;99.90;;;;;;4961572;28;20799;-59
2021/10/19 08:51:53;;;;;;;14.47;10.50;;;8.60;99.90;;;;;;4955969;28;20887;-60
2021/10/19 08:54:18;;;;;;;16.53;11.53;;;8.70;99.90;;;;;;4957625;28;20757;-60
2021/10/19 08:56:44;;;;;;;17.47;11.27;;;8.80;99.90;;;;;;4970378;28;20178;-59
2021/10/19 08:59:11;;;;;;;19.57;12.20;;;8.80;99.90;;;;;;4990072;28;20275;-60
2021/10/19 09:01:39;;;;;;;24.27;12.80;;;8.90;99.90;;;;;;4988272;28;20189;-60
2021/10/19 09:04:07;;;;;;;17.43;11.13;;;9.00;99.90;;;;;;4971650;28;20445;-60
2021/10/19 09:06:35;;;;;;;18.77;12.60;;;9.00;99.90;;;;;;4972192;28;20911;-60
2021/10/19 09:09:24;;;;;;;18.43;12.53;;;9.10;99.90;;;;;;4966640;28;20536;-60
2021/10/19 09:11:50;;;;;;;19.00;12.03;;;9.20;99.90;;;;;;4964536;28;20437;-60
2021/10/19 09:14:17;;;;;;;19.23;12.97;;;9.20;99.90;;;;;;4971735;28;20981;-60
2021/10/19 09:16:51;;;;;;;18.93;13.53;;;9.10;99.90;;;;;;4971934;28;20952;-59
2021/10/19 09:19:20;;;;;;;19.50;12.60;;;9.10;99.90;;;;;;4971050;28;20519;-59
2021/10/19 09:21:50;;;;;;;20.17;13.00;;;9.10;99.90;;;;;;4970496;28;20877;-60
2021/10/19 09:24:18;;;;;;;20.80;12.67;;;9.10;99.90;;;;;;4970610;28;20421;-60
2021/10/19 09:26:50;;;;;;;19.73;12.70;;;9.10;99.90;;;;;;4977141;28;21165;-59
2021/10/19 09:29:16;;;;;;;19.17;13.30;;;9.10;99.90;;;;;;4962996;28;20994;-60
2021/10/19 09:31:41;;;;;;;25.93;13.90;;;9.10;99.90;;;;;;4961277;28;20441;-60
2021/10/19 09:34:11;;;;;;;22.47;15.23;;;9.10;99.90;;;;;;4978060;28;20172;-60
2021/10/19 09:36:37;;;;;;;23.37;15.60;;;9.20;99.90;;;;;;4976365;28;20189;-60
2021/10/19 09:39:02;;;;;;;26.57;17.33;;;9.20;99.90;;;;;;4971803;28;20430;-60
2021/10/19 09:41:28;;;;;;;26.70;16.77;;;9.30;99.90;;;;;;4981981;28;20176;-60
2021/10/19 09:43:54;;;;;;;25.53;16.23;;;9.30;99.90;;;;;;4991198;28;20658;-60
2021/10/19 09:46:23;;;;;;;32.23;17.13;;;9.40;99.90;;;;;;4967810;28;20220;-61
2021/10/19 09:48:50;;;;;;;33.00;18.70;;;9.50;99.90;;;;;;4965264;28;20210;-60
2021/10/19 09:51:16;;;;;;;28.00;17.93;;;9.60;99.90;;;;;;4965168;28;20899;-60
2021/10/19 09:53:43;;;;;;;30.80;18.97;;;9.60;99.90;;;;;;4962903;28;20448;-59
2021/10/19 09:56:09;;;;;;;27.20;17.63;;;9.70;99.90;;;;;;4977506;28;20433;-60
2021/10/19 09:58:36;;;;;;;32.23;18.57;;;9.70;99.90;;;;;;4979920;28;20456;-60
2021/10/19 10:01:03;;;;;;;32.80;18.40;;;9.70;99.90;;;;;;4976995;28;20532;-60
2021/10/19 10:03:29;;;;;;;31.37;17.27;;;9.70;99.90;;;;;;4969908;28;20841;-60
2021/10/19 10:05:55;;;;;;;26.07;16.37;;;9.70;99.90;;;;;;4970093;28;20492;-60
2021/10/19 10:08:23;;;;;;;24.77;16.77;;;9.70;99.90;;;;;;4971273;28;20445;-59
2021/10/19 10:10:57;;;;;;;25.00;15.43;;;9.70;99.90;;;;;;4969383;28;20986;-60
2021/10/19 10:13:24;;;;;;;25.07;16.50;;;9.70;99.90;;;;;;4954471;28;20427;-59
2021/10/19 10:15:50;;;;;;;25.93;16.47;;;9.70;99.90;;;;;;4970325;28;20425;-60
2021/10/19 10:18:16;;;;;;;28.83;16.80;;;9.70;99.90;;;;;;4970152;28;20421;-60
2021/10/19 10:20:44;;;;;;;28.43;16.50;;;9.70;99.90;;;;;;4958329;28;20461;-60
2021/10/19 10:23:19;;;;;;;27.57;16.30;;;9.70;99.90;;;;;;4960447;28;20197;-59
2021/10/19 10:25:56;;;;;;;28.30;17.70;;;9.80;99.90;;;;;;4971232;28;20416;-59
2021/10/19 10:28:31;;;;;;;28.73;18.43;;;9.80;99.90;;;;;;4967422;28;20480;-59
2021/10/19 10:31:07;;;;;;;28.40;18.97;;;9.90;99.90;;;;;;4965147;28;20439;-61
2021/10/19 10:33:37;;;;;;;30.70;18.30;;;9.90;99.90;;;;;;4962109;28;20417;-63
2021/10/19 10:36:09;;;;;;;31.17;19.10;;;10.00;99.90;;;;;;4970608;28;20437;-60
2021/10/19 10:38:36;;;;;;;39.03;19.77;;;10.00;99.90;;;;;;4979526;28;20515;-60
2021/10/19 10:41:12;;;;;;;34.50;21.93;;;10.10;99.90;;;;;;4974285;28;20460;-61
2021/10/19 10:43:39;;;;;;;35.40;20.03;;;10.10;99.90;;;;;;4983264;28;20428;-60
2021/10/19 10:46:06;;;;;;;33.47;19.80;;;10.20;99.90;;;;;;4971287;28;20416;-60
2021/10/19 10:48:33;;;;;;;36.50;19.50;;;10.30;99.90;;;;;;4970586;28;20544;-61
2021/10/19 10:50:58;;;;;;;33.70;20.47;;;10.30;99.90;;;;;;4968479;28;20453;-63
2021/10/19 10:53:35;;;;;;;36.50;19.33;;;10.40;99.90;;;;;;4983621;28;20436;-60
2021/10/19 10:56:01;;;;;;;53.00;30.10;;;10.40;99.90;;;;;;4968707;28;20236;-59
2021/10/19 10:58:32;;;;;;;38.40;23.00;;;10.50;99.90;;;;;;4973582;28;20444;-62
2021/10/19 11:01:00;;;;;;;30.70;18.80;;;10.60;99.90;;;;;;4961333;28;20299;-61
2021/10/19 11:03:26;;;;;;;32.50;19.07;;;10.70;99.90;;;;;;4970635;28;20433;-61
2021/10/19 11:05:58;;;;;;;33.33;20.27;;;10.70;99.90;;;;;;4967748;28;20961;-61
2021/10/19 11:08:27;;;;;;;31.20;18.80;;;10.80;99.90;;;;;;4984069;28;20453;-61
2021/10/19 11:11:06;;;;;;;26.60;17.40;;;10.80;99.90;;;;;;4962635;28;20469;-61
2021/10/19 11:13:50;;;;;;;24.87;16.30;;;10.90;99.90;;;;;;4984643;28;20421;-60
2021/10/19 11:16:17;;;;;;;24.33;15.23;;;10.90;99.90;;;;;;4967492;28;20433;-61
2021/10/19 11:18:43;;;;;;;26.13;15.47;;;11.00;99.90;;;;;;4973463;28;20601;-61
2021/10/19 11:21:09;;;;;;;24.70;15.07;;;11.00;99.90;;;;;;4979194;28;20447;-61
2021/10/19 11:23:41;;;;;;;24.53;15.80;;;11.00;99.90;;;;;;4977658;28;20521;-61
2021/10/19 11:26:09;;;;;;;21.67;13.97;;;11.00;99.90;;;;;;4974126;28;20225;-61
2021/10/19 11:28:37;;;;;;;20.57;13.80;;;11.10;99.90;;;;;;4972409;28;20468;-61
2021/10/19 11:31:04;;;;;;;24.63;15.60;;;11.00;99.90;;;;;;4974690;28;20445;-60
2021/10/19 11:33:36;;;;;;;22.83;13.90;;;11.00;99.90;;;;;;4970635;28;20456;-60
2021/10/19 11:36:02;;;;;;;20.90;14.10;;;11.00;99.90;;;;;;4977657;28;20437;-60
2021/10/19 11:38:28;;;;;;;20.57;13.70;;;11.00;99.90;;;;;;4977178;28;20488;-61
2021/10/19 11:41:11;;;;;;;25.37;14.80;;;11.10;99.90;;;;;;4971892;28;20751;-60
2021/10/19 11:43:42;;;;;;;22.20;13.73;;;11.10;99.90;;;;;;4969356;28;20582;-60
2021/10/19 11:46:10;;;;;;;27.10;15.03;;;11.10;99.90;;;;;;4985656;28;20436;-60
2021/10/19 11:48:37;;;;;;;24.90;15.13;;;11.20;99.90;;;;;;4971573;28;20464;-60
2021/10/19 11:51:03;;;;;;;25.00;13.77;;;11.30;99.90;;;;;;4976046;28;20818;-61
2021/10/19 11:53:29;;;;;;;25.97;14.87;;;11.30;99.90;;;;;;4957845;28;20425;-61
2021/10/19 11:55:55;;;;;;;24.80;14.33;;;11.40;99.90;;;;;;4972882;28;20433;-60
2021/10/19 11:58:24;;;;;;;18.20;12.60;;;11.50;99.90;;;;;;4972878;28;20793;-61
2021/10/19 12:00:52;;;;;;;23.17;13.30;;;11.50;99.90;;;;;;4970478;28;20216;-61
2021/10/19 12:03:18;;;;;;;21.63;14.20;;;11.60;99.90;;;;;;4972899;28;20448;-60
2021/10/19 12:05:44;;;;;;;24.13;13.37;;;11.70;99.90;;;;;;4971556;28;20467;-60
2021/10/19 12:08:10;;;;;;;27.87;15.00;;;11.80;99.90;;;;;;4985496;28;20701;-60
2021/10/19 12:10:36;;;;;;;23.37;14.33;;;12.00;99.90;;;;;;4972061;28;20544;-61
2021/10/19 12:13:08;;;;;;;23.83;14.17;;;12.10;99.90;;;;;;4968904;28;20930;-60
2021/10/19 12:15:36;;;;;;;21.67;13.33;;;12.10;99.90;;;;;;4970205;28;20425;-61
2021/10/19 12:18:04;;;;;;;22.03;12.83;;;12.20;99.90;;;;;;4970418;28;20953;-60
2021/10/19 12:20:33;;;;;;;19.43;13.40;;;12.20;99.90;;;;;;4969597;28;20448;-60
2021/10/19 12:23:05;;;;;;;18.23;12.50;;;12.20;99.90;;;;;;4978431;28;20496;-61
2021/10/19 12:25:39;;;;;;;25.43;13.30;;;12.10;99.90;;;;;;4971729;28;20528;-60
2021/10/19 12:28:07;;;;;;;21.17;13.07;;;12.10;99.90;;;;;;4979372;28;20468;-60
2021/10/19 12:30:42;;;;;;;20.23;12.30;;;12.00;99.90;;;;;;4969156;28;20515;-61
2021/10/19 12:33:17;;;;;;;21.93;13.40;;;12.00;99.90;;;;;;4968450;28;20440;-60
2021/10/19 12:35:50;;;;;;;19.97;13.03;;;12.00;99.90;;;;;;4974002;28;20839;-61
2021/10/19 12:38:15;;;;;;;18.37;11.50;;;12.00;99.90;;;;;;4972266;28;20437;-60
2021/10/19 12:40:45;;;;;;;19.27;12.23;;;12.10;99.90;;;;;;4975574;28;20527;-60